createdAt,value
2022-12-03T00:02:11.883Z,8.50
2022-12-03T00:04:38.306Z,8.31
2022-12-03T00:07:04.924Z,8.67
2022-12-03T00:09:31.377Z,8.53
2022-12-03T00:11:57.774Z,8.35
2022-12-03T00:14:24.116Z,8.09
2022-12-03T00:16:50.467Z,8.33
2022-12-03T00:19:16.823Z,8.29
2022-12-03T00:21:43.211Z,8.53
2022-12-03T00:24:09.569Z,8.41
2022-12-03T00:26:35.975Z,8.84
2022-12-03T00:29:02.358Z,8.44
2022-12-03T00:31:28.791Z,8.73
2022-12-03T00:33:55.171Z,8.59
2022-12-03T00:36:21.550Z,8.12
2022-12-03T00:38:47.957Z,8.22
2022-12-03T00:41:14.388Z,8.06
2022-12-03T00:43:40.747Z,8.01
2022-12-03T00:46:07.142Z,8.10
2022-12-03T00:48:33.569Z,8.06
2022-12-03T00:50:59.908Z,7.89
2022-12-03T00:53:26.295Z,7.57
2022-12-03T00:55:52.708Z,7.64
2022-12-03T00:58:19.090Z,7.45
2022-12-03T01:00:45.480Z,7.88
2022-12-03T01:03:11.856Z,7.63
2022-12-03T01:05:38.211Z,7.48
2022-12-03T01:08:04.681Z,7.70
2022-12-03T01:10:31.099Z,7.65
2022-12-03T01:12:57.457Z,7.61
2022-12-03T01:15:23.838Z,7.96
2022-12-03T01:17:50.239Z,7.88
2022-12-03T01:20:16.624Z,7.99
2022-12-03T01:22:43.013Z,7.55
2022-12-03T01:25:09.358Z,7.46
2022-12-03T01:27:35.736Z,7.58
2022-12-03T01:30:02.141Z,7.77
2022-12-03T01:32:28.487Z,7.97
2022-12-03T01:34:55.279Z,8.16
2022-12-03T01:37:21.979Z,8.46
2022-12-03T01:39:48.361Z,8.47
2022-12-03T01:42:14.717Z,8.77
2022-12-03T01:44:41.112Z,9.07
2022-12-03T01:47:07.559Z,8.90
2022-12-03T01:49:33.976Z,8.63
2022-12-03T01:52:00.364Z,8.87
2022-12-03T01:54:26.722Z,8.57
2022-12-03T01:56:53.075Z,8.59
2022-12-03T01:59:19.420Z,8.88
2022-12-03T02:01:45.843Z,8.72
2022-12-03T02:04:12.267Z,8.60
2022-12-03T02:06:38.717Z,8.33
2022-12-03T02:09:05.058Z,8.61
2022-12-03T02:11:31.385Z,8.32
2022-12-03T02:13:57.794Z,8.49
2022-12-03T02:16:24.216Z,8.03
2022-12-03T02:18:50.663Z,8.15
2022-12-03T02:21:17.077Z,8.35
2022-12-03T02:23:43.429Z,8.10
2022-12-03T02:26:09.807Z,7.94
2022-12-03T02:28:36.156Z,7.98
2022-12-03T02:31:02.580Z,8.42
2022-12-03T02:33:29.003Z,8.30
2022-12-03T02:35:59.105Z,8.13
2022-12-03T02:38:28.415Z,8.26
2022-12-03T02:40:54.766Z,8.61
2022-12-03T02:43:21.138Z,8.60
2022-12-03T02:45:47.487Z,8.51
2022-12-03T02:48:13.862Z,8.22
2022-12-03T02:50:40.274Z,8.27
2022-12-03T02:53:06.632Z,7.72
2022-12-03T02:55:48.047Z,8.12
2022-12-03T02:58:14.442Z,7.67
2022-12-03T03:00:40.848Z,7.58
2022-12-03T03:03:07.256Z,7.34
2022-12-03T03:05:33.617Z,7.45
2022-12-03T03:08:00.133Z,7.00
2022-12-03T03:10:26.595Z,7.67
2022-12-03T03:12:52.987Z,7.65
2022-12-03T03:15:19.384Z,7.70
2022-12-03T03:17:45.735Z,7.65
2022-12-03T03:20:12.091Z,7.85
2022-12-03T03:22:38.473Z,7.73
2022-12-03T03:25:04.863Z,7.83
2022-12-03T03:27:31.259Z,7.44
2022-12-03T03:29:57.606Z,7.81
2022-12-03T03:32:23.983Z,7.64
2022-12-03T03:34:50.524Z,8.00
2022-12-03T03:37:16.935Z,7.73
2022-12-03T03:39:43.279Z,7.68
2022-12-03T03:42:09.632Z,7.62
2022-12-03T03:44:35.967Z,7.50
2022-12-03T03:47:02.349Z,7.91
2022-12-03T03:49:28.749Z,7.32
2022-12-03T03:51:55.096Z,7.50
2022-12-03T03:54:21.446Z,7.34
2022-12-03T03:56:47.780Z,7.08
2022-12-03T03:59:14.159Z,7.06
2022-12-03T04:01:40.600Z,7.23
2022-12-03T04:04:07.055Z,7.15
2022-12-03T04:06:33.450Z,7.22
2022-12-03T04:08:59.806Z,7.41
2022-12-03T04:11:26.206Z,7.30
2022-12-03T04:13:52.597Z,7.58
2022-12-03T04:16:19.035Z,7.93
2022-12-03T04:18:45.444Z,8.28
2022-12-03T04:21:11.845Z,8.19
2022-12-03T04:23:38.238Z,8.31
2022-12-03T04:26:04.576Z,8.12
2022-12-03T04:28:30.903Z,8.23
2022-12-03T04:30:57.298Z,8.32
2022-12-03T04:33:23.722Z,8.12
2022-12-03T04:35:50.160Z,8.03
2022-12-03T04:38:16.581Z,8.02
2022-12-03T04:40:42.961Z,7.88
2022-12-03T04:43:09.342Z,7.48
2022-12-03T04:45:35.822Z,7.25
2022-12-03T04:48:02.224Z,7.60
2022-12-03T04:50:28.614Z,7.62
2022-12-03T04:52:54.972Z,7.26
2022-12-03T04:55:21.302Z,7.28
2022-12-03T04:57:47.643Z,7.37
2022-12-03T05:00:13.991Z,7.19
2022-12-03T05:02:40.436Z,6.97
2022-12-03T05:05:06.872Z,6.57
2022-12-03T05:07:33.308Z,6.35
2022-12-03T05:09:59.749Z,6.07
2022-12-03T05:12:26.097Z,5.73
2022-12-03T05:14:52.689Z,6.00
2022-12-03T05:17:19.254Z,6.05
2022-12-03T05:19:45.583Z,6.17
2022-12-03T05:22:11.975Z,6.03
2022-12-03T05:24:38.357Z,6.28
2022-12-03T05:27:04.703Z,5.87
2022-12-03T05:29:31.047Z,6.58
2022-12-03T05:31:57.429Z,6.51
2022-12-03T05:34:23.838Z,6.40
2022-12-03T05:36:50.227Z,6.40
2022-12-03T05:39:16.582Z,6.83
2022-12-03T05:41:42.914Z,6.80
2022-12-03T05:44:09.289Z,6.58
2022-12-03T05:46:35.701Z,7.08
2022-12-03T05:49:02.114Z,6.78
2022-12-03T05:51:28.509Z,6.08
2022-12-03T05:53:54.870Z,5.94
2022-12-03T05:56:21.241Z,6.09
2022-12-03T05:58:47.698Z,6.56
2022-12-03T06:01:14.051Z,6.31
2022-12-03T06:03:40.560Z,6.43
2022-12-03T06:06:07.054Z,5.80
2022-12-03T06:08:33.418Z,6.52
2022-12-03T06:10:59.761Z,6.13
2022-12-03T06:13:26.109Z,6.11
2022-12-03T06:15:52.542Z,5.82
2022-12-03T06:18:18.931Z,6.05
2022-12-03T06:20:45.314Z,5.95
2022-12-03T06:23:11.692Z,6.35
2022-12-03T06:25:38.046Z,6.03
2022-12-03T06:28:04.427Z,6.12
2022-12-03T06:30:30.782Z,6.13
2022-12-03T06:32:57.110Z,6.07
2022-12-03T06:35:23.474Z,6.04
2022-12-03T06:37:49.808Z,6.10
2022-12-03T06:40:16.164Z,6.50
2022-12-03T06:42:42.498Z,6.21
2022-12-03T06:45:08.881Z,6.21
2022-12-03T06:47:35.341Z,6.31
2022-12-03T06:50:01.693Z,6.34
2022-12-03T06:52:28.062Z,6.52
2022-12-03T06:54:54.638Z,6.60
2022-12-03T06:57:21.153Z,6.85
2022-12-03T06:59:47.507Z,6.78
2022-12-03T07:02:13.943Z,7.10
2022-12-03T07:04:44.808Z,6.79
2022-12-03T07:07:12.695Z,7.06
2022-12-03T07:09:39.079Z,6.82
2022-12-03T07:12:05.480Z,6.85
2022-12-03T07:14:31.839Z,6.58
2022-12-03T07:16:58.171Z,6.82
2022-12-03T07:19:30.700Z,6.59
2022-12-03T07:21:58.790Z,6.58
2022-12-03T07:24:25.160Z,6.86
2022-12-03T07:26:51.510Z,6.58
2022-12-03T07:29:18.034Z,6.51
2022-12-03T07:31:44.518Z,6.63
2022-12-03T07:34:10.939Z,6.40
2022-12-03T07:36:37.293Z,6.72
2022-12-03T07:39:03.688Z,6.67
2022-12-03T07:41:30.038Z,6.72
2022-12-03T07:43:56.381Z,6.73
2022-12-03T07:46:22.779Z,6.76
2022-12-03T07:48:49.161Z,6.60
2022-12-03T07:51:15.792Z,6.49
2022-12-03T07:53:42.189Z,6.94
2022-12-03T07:56:08.590Z,6.58
2022-12-03T07:58:34.940Z,6.98
2022-12-03T08:01:01.409Z,7.00
2022-12-03T08:03:27.845Z,6.90
2022-12-03T08:05:54.238Z,6.58
2022-12-03T08:08:20.674Z,6.60
2022-12-03T08:10:47.061Z,6.62
2022-12-03T08:13:13.406Z,7.17
2022-12-03T08:15:39.930Z,7.30
2022-12-03T08:18:06.297Z,7.08
2022-12-03T08:20:32.667Z,6.87
2022-12-03T08:22:59.086Z,6.66
2022-12-03T08:25:25.434Z,6.67
2022-12-03T08:27:51.780Z,6.62
2022-12-03T08:30:18.157Z,6.80
2022-12-03T08:32:44.516Z,6.41
2022-12-03T08:35:10.901Z,6.27
2022-12-03T08:37:37.266Z,6.67
2022-12-03T08:40:03.637Z,7.12
2022-12-03T08:42:30.399Z,7.02
2022-12-03T08:44:57.429Z,6.96
2022-12-03T08:47:24.053Z,6.68
2022-12-03T08:49:50.462Z,6.77
2022-12-03T08:52:16.850Z,7.29
2022-12-03T08:54:43.207Z,7.43
2022-12-03T08:57:09.586Z,7.30
2022-12-03T08:59:35.987Z,7.30
2022-12-03T09:02:02.327Z,7.06
2022-12-03T09:04:28.748Z,7.13
2022-12-03T09:06:55.169Z,6.83
2022-12-03T09:09:21.525Z,6.83
2022-12-03T09:11:47.923Z,6.49
2022-12-03T09:14:18.443Z,6.39
2022-12-03T09:16:45.207Z,6.29
2022-12-03T09:19:11.649Z,6.08
2022-12-03T09:21:38.011Z,6.35
2022-12-03T09:24:04.419Z,6.97
2022-12-03T09:26:30.827Z,7.10
2022-12-03T09:28:57.259Z,7.18
2022-12-03T09:31:23.651Z,7.20
2022-12-03T09:33:50.093Z,7.36
2022-12-03T09:36:16.494Z,7.42
2022-12-03T09:38:46.211Z,7.97
2022-12-03T09:41:14.372Z,8.19
2022-12-03T09:44:03.389Z,7.73
2022-12-03T09:46:27.141Z,7.68
2022-12-03T09:48:53.546Z,8.11
2022-12-03T09:51:19.895Z,7.77
2022-12-03T09:53:46.255Z,7.59
2022-12-03T09:56:12.616Z,7.49
2022-12-03T09:58:39.024Z,7.23
2022-12-03T10:01:05.446Z,7.17
2022-12-03T10:03:31.868Z,7.40
2022-12-03T10:05:58.272Z,7.63
2022-12-03T10:08:29.355Z,7.59
2022-12-03T10:10:58.301Z,7.60
2022-12-03T10:13:26.072Z,7.81
2022-12-03T10:15:52.600Z,7.89
2022-12-03T10:18:18.987Z,7.74
2022-12-03T10:20:45.362Z,7.66
2022-12-03T10:23:11.712Z,7.12
2022-12-03T10:25:38.067Z,7.52
2022-12-03T10:28:04.446Z,7.40
2022-12-03T10:30:30.885Z,7.86
2022-12-03T10:32:57.317Z,7.25
2022-12-03T10:35:23.671Z,7.88
2022-12-03T10:37:50.042Z,7.90
2022-12-03T10:40:16.381Z,7.80
2022-12-03T10:42:42.721Z,8.03
2022-12-03T10:45:09.131Z,7.81
2022-12-03T10:47:35.604Z,7.57
2022-12-03T10:50:02.032Z,7.85
2022-12-03T10:52:28.387Z,7.75
2022-12-03T10:54:54.829Z,7.47
2022-12-03T10:57:21.454Z,7.68
2022-12-03T10:59:47.833Z,7.83
2022-12-03T11:02:14.187Z,8.04
2022-12-03T11:04:40.566Z,7.81
2022-12-03T11:07:06.931Z,8.04
2022-12-03T11:09:33.308Z,8.04
2022-12-03T11:11:59.699Z,8.08
2022-12-03T11:14:26.101Z,8.19
2022-12-03T11:16:52.506Z,7.78
2022-12-03T11:19:18.853Z,7.67
2022-12-03T11:21:45.206Z,7.96
2022-12-03T11:24:11.561Z,7.49
2022-12-03T11:26:38.503Z,7.89
2022-12-03T11:29:07.220Z,7.95
2022-12-03T11:31:33.653Z,7.75
2022-12-03T11:34:00.015Z,8.05
2022-12-03T11:36:47.638Z,8.07
2022-12-03T11:39:12.826Z,8.16
2022-12-03T11:41:39.216Z,8.12
2022-12-03T11:44:05.564Z,7.93
2022-12-03T11:46:32.018Z,8.12
2022-12-03T11:48:58.436Z,8.14
2022-12-03T11:51:24.787Z,8.62
2022-12-03T11:53:51.140Z,8.30
2022-12-03T11:56:17.488Z,7.60
2022-12-03T11:58:43.861Z,7.66
2022-12-03T12:01:10.239Z,8.26
2022-12-03T12:03:36.683Z,8.17
2022-12-03T12:06:03.138Z,8.03
2022-12-03T12:08:29.574Z,8.01
2022-12-03T12:10:56.001Z,8.22
2022-12-03T12:13:22.384Z,8.16
2022-12-03T12:15:48.843Z,8.05
2022-12-03T12:18:15.228Z,8.29
2022-12-03T12:20:41.638Z,7.82
2022-12-03T12:23:08.021Z,8.27
2022-12-03T12:25:34.401Z,8.12
2022-12-03T12:28:00.746Z,8.45
2022-12-03T12:30:27.079Z,8.72
2022-12-03T12:32:53.410Z,8.58
2022-12-03T12:35:19.782Z,8.52
2022-12-03T12:37:47.744Z,8.95
2022-12-03T12:40:14.982Z,8.97
2022-12-03T12:42:41.411Z,8.48
2022-12-03T12:45:07.791Z,8.79
2022-12-03T12:47:34.433Z,8.87
2022-12-03T12:50:00.911Z,8.94
2022-12-03T12:52:27.344Z,9.28
2022-12-03T12:54:53.695Z,8.86
2022-12-03T12:57:20.041Z,9.05
2022-12-03T12:59:46.373Z,9.34
2022-12-03T13:02:12.824Z,9.41
2022-12-03T13:04:39.225Z,9.27
2022-12-03T13:07:05.563Z,9.00
2022-12-03T13:09:31.984Z,9.13
2022-12-03T13:11:58.368Z,9.37
2022-12-03T13:14:24.721Z,9.39
2022-12-03T13:16:51.145Z,9.12
2022-12-03T13:19:17.616Z,9.16
2022-12-03T13:21:43.996Z,9.40
2022-12-03T13:24:10.349Z,9.28
2022-12-03T13:26:39.297Z,9.14
2022-12-03T13:29:05.955Z,9.23
2022-12-03T13:31:32.419Z,9.06
2022-12-03T13:33:58.887Z,9.49
2022-12-03T13:36:25.221Z,9.17
2022-12-03T13:38:51.597Z,8.96
2022-12-03T13:41:17.961Z,9.27
2022-12-03T13:43:44.612Z,9.33
2022-12-03T13:46:11.183Z,9.58
2022-12-03T13:48:37.613Z,9.66
2022-12-03T13:51:04.028Z,9.46
2022-12-03T13:53:30.432Z,9.20
2022-12-03T13:55:56.829Z,9.43
2022-12-03T13:58:23.216Z,8.99
2022-12-03T14:00:49.622Z,9.01
2022-12-03T14:03:16.108Z,9.03
2022-12-03T14:05:42.455Z,9.24
2022-12-03T14:08:08.868Z,9.20
2022-12-03T14:10:35.341Z,8.86
2022-12-03T14:13:01.692Z,8.73
2022-12-03T14:15:28.045Z,9.22
2022-12-03T14:17:54.426Z,9.00
2022-12-03T14:20:20.825Z,9.17
2022-12-03T14:22:47.178Z,9.16
2022-12-03T14:25:13.574Z,8.74
2022-12-03T14:27:39.922Z,9.10
2022-12-03T14:30:06.259Z,8.88
2022-12-03T14:32:32.611Z,8.90
2022-12-03T14:34:58.947Z,8.98
2022-12-03T14:37:25.318Z,8.55
2022-12-03T14:39:51.849Z,8.51
2022-12-03T14:42:18.524Z,8.75
2022-12-03T14:44:44.917Z,8.61
2022-12-03T14:47:11.300Z,8.70
2022-12-03T14:49:37.786Z,8.49
2022-12-03T14:52:04.230Z,8.36
2022-12-03T14:54:30.640Z,8.90
2022-12-03T14:56:56.999Z,8.40
2022-12-03T14:59:27.596Z,8.56
2022-12-03T15:01:54.358Z,8.61
2022-12-03T15:04:20.905Z,9.01
2022-12-03T15:06:47.295Z,8.82
2022-12-03T15:09:13.634Z,9.22
2022-12-03T15:11:45.771Z,8.85
2022-12-03T15:14:12.634Z,8.82
2022-12-03T15:16:39.105Z,8.90
2022-12-03T15:19:05.534Z,8.78
2022-12-03T15:21:31.931Z,8.64
2022-12-03T15:23:58.348Z,8.65
2022-12-03T15:26:24.738Z,8.82
2022-12-03T15:28:51.145Z,9.01
2022-12-03T15:31:17.600Z,8.78
2022-12-03T15:33:43.984Z,8.93
2022-12-03T15:36:10.387Z,8.77
2022-12-03T15:38:36.742Z,8.57
2022-12-03T15:41:03.157Z,8.82
2022-12-03T15:43:29.501Z,9.13
2022-12-03T15:45:55.887Z,8.58
2022-12-03T15:48:22.244Z,8.24
2022-12-03T15:50:48.624Z,7.95
2022-12-03T15:53:15.002Z,8.01
2022-12-03T15:55:41.382Z,8.37
2022-12-03T15:58:07.772Z,8.25
2022-12-03T16:00:34.160Z,8.34
2022-12-03T16:03:00.630Z,8.64
2022-12-03T16:05:27.034Z,8.54
2022-12-03T16:07:53.484Z,8.47
2022-12-03T16:10:19.861Z,8.61
2022-12-03T16:12:46.238Z,8.90
2022-12-03T16:15:12.592Z,8.83
2022-12-03T16:17:38.941Z,8.33
2022-12-03T16:20:05.375Z,8.81
2022-12-03T16:22:31.757Z,8.97
2022-12-03T16:24:58.107Z,8.86
2022-12-03T16:27:26.062Z,9.30
2022-12-03T16:29:52.952Z,8.76
2022-12-03T16:32:19.680Z,8.97
2022-12-03T16:34:46.070Z,8.56
2022-12-03T16:37:12.470Z,9.05
2022-12-03T16:39:38.823Z,8.96
2022-12-03T16:42:07.081Z,8.84
2022-12-03T16:44:36.800Z,8.08
2022-12-03T16:47:03.197Z,8.39
2022-12-03T16:49:29.598Z,8.70
2022-12-03T16:51:56.007Z,8.69
2022-12-03T16:54:22.391Z,8.11
2022-12-03T16:56:48.840Z,8.31
2022-12-03T16:59:15.250Z,8.64
2022-12-03T17:01:41.719Z,8.70
2022-12-03T17:04:08.161Z,8.65
2022-12-03T17:06:34.551Z,8.57
2022-12-03T17:09:00.924Z,8.70
2022-12-03T17:11:27.315Z,8.65
2022-12-03T17:13:53.718Z,8.47
2022-12-03T17:16:20.214Z,8.36
2022-12-03T17:18:46.665Z,8.09
2022-12-03T17:21:13.058Z,8.53
2022-12-03T17:23:39.462Z,8.60
2022-12-03T17:26:05.857Z,8.69
2022-12-03T17:28:34.993Z,8.35
2022-12-03T17:31:01.460Z,8.32
2022-12-03T17:33:27.890Z,8.59
2022-12-03T17:35:54.253Z,8.93
2022-12-03T17:38:20.638Z,8.62
2022-12-03T17:40:46.992Z,9.02
2022-12-03T17:43:13.376Z,9.07
2022-12-03T17:45:39.718Z,8.61
2022-12-03T17:48:06.102Z,9.02
2022-12-03T17:50:32.516Z,9.29
2022-12-03T17:52:58.920Z,8.84
2022-12-03T17:55:33.842Z,8.83
2022-12-03T17:58:03.559Z,8.67
2022-12-03T18:00:29.956Z,8.54
2022-12-03T18:02:56.333Z,8.96
2022-12-03T18:05:22.732Z,9.01
2022-12-03T18:07:49.298Z,8.46
2022-12-03T18:10:15.679Z,8.28
2022-12-03T18:12:42.063Z,8.35
2022-12-03T18:15:08.465Z,8.66
2022-12-03T18:17:34.880Z,8.99
2022-12-03T18:20:01.253Z,9.07
2022-12-03T18:22:27.641Z,8.78
2022-12-03T18:24:54.040Z,8.87
2022-12-03T18:27:20.451Z,8.72
2022-12-03T18:29:46.835Z,8.88
2022-12-03T18:32:27.716Z,8.73
2022-12-03T18:34:56.943Z,8.93
2022-12-03T18:37:23.303Z,9.24
2022-12-03T18:39:49.667Z,8.70
2022-12-03T18:42:16.023Z,8.42
2022-12-03T18:44:47.865Z,8.44
2022-12-03T18:47:15.808Z,8.62
2022-12-03T18:49:42.161Z,8.11
2022-12-03T18:52:08.508Z,7.51
2022-12-03T18:54:34.913Z,8.17
2022-12-03T18:57:01.269Z,8.23
2022-12-03T18:59:27.648Z,8.55
2022-12-03T19:01:54.085Z,8.64
2022-12-03T19:04:20.538Z,8.84
2022-12-03T19:06:46.937Z,8.84
2022-12-03T19:09:13.332Z,8.25
2022-12-03T19:11:39.689Z,8.20
2022-12-03T19:14:06.079Z,8.32
2022-12-03T19:16:32.536Z,8.02
2022-12-03T19:18:58.923Z,7.72
2022-12-03T19:21:29.391Z,7.52
2022-12-03T19:24:23.184Z,7.33
2022-12-03T19:26:45.055Z,7.17
2022-12-03T19:29:11.461Z,6.90
2022-12-03T19:31:37.938Z,7.09
2022-12-03T19:34:04.387Z,7.30
2022-12-03T19:36:30.782Z,7.46
2022-12-03T19:38:57.650Z,7.54
2022-12-03T19:41:24.053Z,7.80
2022-12-03T19:43:50.482Z,8.08
2022-12-03T19:46:16.900Z,7.67
2022-12-03T19:48:43.279Z,7.18
2022-12-03T19:51:32.974Z,7.56
2022-12-03T19:53:55.940Z,7.72
2022-12-03T19:56:22.281Z,7.88
2022-12-03T19:58:48.734Z,8.07
2022-12-03T20:01:15.128Z,8.20
2022-12-03T20:03:41.494Z,8.30
2022-12-03T20:06:07.827Z,8.53
2022-12-03T20:08:34.237Z,8.54
2022-12-03T20:11:00.631Z,8.19
2022-12-03T20:13:29.819Z,8.33
2022-12-03T20:15:58.716Z,8.83
2022-12-03T20:18:25.194Z,8.99
2022-12-03T20:20:51.594Z,8.31
2022-12-03T20:23:17.954Z,8.45
2022-12-03T20:25:44.333Z,8.20
2022-12-03T20:28:10.682Z,8.00
2022-12-03T20:30:37.052Z,8.14
2022-12-03T20:33:03.449Z,8.21
2022-12-03T20:35:29.787Z,7.75
2022-12-03T20:37:56.159Z,7.76
2022-12-03T20:40:22.502Z,8.10
2022-12-03T20:42:48.878Z,8.01
2022-12-03T20:45:15.271Z,8.03
2022-12-03T20:47:41.614Z,7.96
2022-12-03T20:50:07.952Z,8.22
2022-12-03T20:52:34.336Z,8.17
2022-12-03T20:55:00.725Z,7.96
2022-12-03T20:57:27.095Z,8.10
2022-12-03T20:59:53.741Z,7.85
2022-12-03T21:02:20.477Z,7.74
2022-12-03T21:04:47.032Z,7.97
2022-12-03T21:07:13.430Z,7.95
2022-12-03T21:09:39.841Z,7.52
2022-12-03T21:12:06.254Z,7.58
2022-12-03T21:14:32.642Z,7.72
2022-12-03T21:17:08.465Z,7.75
2022-12-03T21:19:35.417Z,7.37
2022-12-03T21:22:01.762Z,7.46
2022-12-03T21:24:28.153Z,7.75
2022-12-03T21:26:54.545Z,7.81
2022-12-03T21:29:20.953Z,7.99
2022-12-03T21:31:47.434Z,7.72
2022-12-03T21:34:13.812Z,7.51
2022-12-03T21:36:40.180Z,7.78
2022-12-03T21:39:06.549Z,7.45
2022-12-03T21:41:32.903Z,7.47
2022-12-03T21:43:59.253Z,7.72
2022-12-03T21:47:10.469Z,7.32
2022-12-03T21:49:11.999Z,7.49
2022-12-03T21:51:38.416Z,7.22
2022-12-03T21:54:04.780Z,7.14
2022-12-03T21:56:31.300Z,7.27
2022-12-03T21:58:57.658Z,7.58
2022-12-03T22:01:24.070Z,7.16
2022-12-03T22:03:50.527Z,7.70
2022-12-03T22:06:16.918Z,7.89
2022-12-03T22:08:43.274Z,8.18
2022-12-03T22:11:09.708Z,7.98
2022-12-03T22:13:36.053Z,8.09
2022-12-03T22:16:02.499Z,7.48
2022-12-03T22:18:28.871Z,7.72
2022-12-03T22:20:55.251Z,7.81
2022-12-03T22:23:21.597Z,8.11
2022-12-03T22:25:47.975Z,8.51
2022-12-03T22:28:14.324Z,8.69
2022-12-03T22:30:40.748Z,8.50
2022-12-03T22:33:07.106Z,8.44
2022-12-03T22:35:33.452Z,8.90
2022-12-03T22:37:59.841Z,8.99
2022-12-03T22:40:26.210Z,9.24
2022-12-03T22:42:52.592Z,9.15
2022-12-03T22:45:18.977Z,8.66
2022-12-03T22:47:45.363Z,9.05
2022-12-03T22:50:12.554Z,9.35
2022-12-03T22:52:38.906Z,9.32
2022-12-03T22:55:05.268Z,9.41
2022-12-03T22:57:31.628Z,9.28
2022-12-03T22:59:58.032Z,9.48
2022-12-03T23:02:24.407Z,8.94
2022-12-03T23:04:50.837Z,8.49
2022-12-03T23:07:17.228Z,8.47
2022-12-03T23:09:43.628Z,8.67
2022-12-03T23:12:09.975Z,8.58
2022-12-03T23:14:36.320Z,9.11
2022-12-03T23:17:02.692Z,9.24
2022-12-03T23:19:29.085Z,9.65
2022-12-03T23:21:55.439Z,9.53
2022-12-03T23:24:21.778Z,9.51
2022-12-03T23:26:48.098Z,9.25
2022-12-03T23:29:14.433Z,9.52
2022-12-03T23:31:40.831Z,9.65
2022-12-03T23:34:07.269Z,9.44
2022-12-03T23:36:33.636Z,9.40
2022-12-03T23:39:00.024Z,9.70
2022-12-03T23:41:26.408Z,9.34
2022-12-03T23:43:52.777Z,9.19
2022-12-03T23:46:19.187Z,9.29
2022-12-03T23:48:45.583Z,9.62
2022-12-03T23:51:11.970Z,9.42
2022-12-03T23:53:38.336Z,9.54
2022-12-03T23:56:04.674Z,9.11
2022-12-03T23:58:31.030Z,9.04
